Time;durP1;ratioP1;P1;durP2;ratioP2;P2;SDS_P1;SDS_P2;PMS_P1;PMS_P2;Temp;Humidity;BMP_temperature;BMP_pressure;BME280_temperature;BME280_humidity;BME280_pressure;Samples;Min_cycle;Max_cycle;Signal;HPM_P1;HPM_P2
2022/11/08 00:02:16;;;;;;;;;;;;;;;;;;5024773;28;20379;-70
2022/11/08 00:04:42;;;;;;;;;;;;;;;;;;5028278;28;19979;-70
2022/11/08 00:15:22;;;;;;;;;;;;;;;;;;5020899;28;20373;-71
2022/11/08 00:17:48;;;;;;;;;;;;;;;;;;5019009;28;19921;-70
2022/11/08 00:20:14;;;;;;;;;;;;;;;;;;5027655;28;19921;-71
2022/11/08 00:22:40;;;;;;;;;;;;;;;;;;5019282;28;20008;-71
2022/11/08 00:25:06;;;;;;;;;;;;;;;;;;5026727;28;19929;-71
2022/11/08 00:27:32;;;;;;;;;;;;;;;;;;5015575;28;19935;-71
2022/11/08 00:29:57;;;;;;;;;;;;;;;;;;5028494;28;20393;-70
2022/11/08 00:32:23;;;;;;;;;;;;;;;;;;5020786;28;20448;-72
2022/11/08 00:34:49;;;;;;;;;;;;;;;;;;5017077;28;20383;-70
2022/11/08 00:37:15;;;;;;;;;;;;;;;;;;5026114;28;19921;-71
2022/11/08 00:39:41;;;;;;;;;;;;;;;;;;5026387;28;19967;-71
2022/11/08 00:42:07;;;;;;;;;;;;;;;;;;5025792;28;19921;-70
2022/11/08 00:44:33;;;;;;;;;;;;;;;;;;5018931;28;20413;-70
2022/11/08 00:46:59;;;;;;;;;;;;;;;;;;5027283;28;20015;-71
2022/11/08 00:49:25;;;;;;;;;;;;;;;;;;5023929;28;20299;-71
2022/11/08 00:51:51;;;;;;;;;;;;;;;;;;5016564;28;20406;-71
2022/11/08 00:54:17;;;;;;;;;;;;;;;;;;5027215;28;19925;-71
2022/11/08 00:56:43;;;;;;;;;;;;;;;;;;5026229;28;19928;-71
2022/11/08 00:59:09;;;;;;;;;;;;;;;;;;5021707;28;20367;-70
2022/11/08 01:01:35;;;;;;;;;;;;;;;;;;5024065;28;19928;-70
2022/11/08 01:04:01;;;;;;;;;;;;;;;;;;5014867;28;19925;-71
2022/11/08 01:06:27;;;;;;;;;;;;;;;;;;5020558;28;20414;-71
2022/11/08 01:08:53;;;;;;;;;;;;;;;;;;5019431;28;19921;-71
2022/11/08 01:11:20;;;;;;;;;;;;;;;;;;5027064;28;19928;-71
2022/11/08 01:13:46;;;;;;;;;;;;;;;;;;5030705;28;20018;-71
2022/11/08 01:16:12;;;;;;;;;;;;;;;;;;5024671;28;20070;-71
2022/11/08 01:18:38;;;;;;;;;;;;;;;;;;5022087;28;20083;-71
2022/11/08 01:21:04;;;;;;;;;;;;;;;;;;5026147;28;19928;-71
2022/11/08 01:23:30;;;;;;;;;;;;;;;;;;5002113;28;19927;-71
2022/11/08 01:25:56;;;;;;;;;;;;;;;;;;5030216;28;19921;-69
2022/11/08 01:28:22;;;;;;;;;;;;;;;;;;5025633;28;19972;-71
2022/11/08 01:30:47;;;;;;;;;;;;;;;;;;5025124;28;19927;-72
2022/11/08 01:33:13;;;;;;;;;;;;;;;;;;5025580;28;19929;-71
2022/11/08 01:35:39;;;;;;;;;;;;;;;;;;5027568;28;19931;-71
2022/11/08 01:38:05;;;;;;;;;;;;;;;;;;5026282;28;19932;-71
2022/11/08 01:40:31;;;;;;;;;;;;;;;;;;5018696;28;19944;-72
2022/11/08 01:42:57;;;;;;;;;;;;;;;;;;5028468;28;20309;-71
2022/11/08 01:45:23;;;;;;;;;;;;;;;;;;5025549;28;20472;-71
2022/11/08 01:47:49;;;;;;;;;;;;;;;;;;5022629;28;19928;-71
2022/11/08 01:50:15;;;;;;;;;;;;;;;;;;5018528;28;19921;-71
2022/11/08 01:52:41;;;;;;;;;;;;;;;;;;5020497;28;20375;-72
2022/11/08 01:55:07;;;;;;;;;;;;;;;;;;5024397;28;19928;-71
2022/11/08 01:57:33;;;;;;;;;;;;;;;;;;5026141;28;19921;-71
2022/11/08 01:59:59;;;;;;;;;;;;;;;;;;5024689;28;19921;-71
2022/11/08 02:02:25;;;;;;;;;;;;;;;;;;5020060;28;20620;-72
2022/11/08 02:04:51;;;;;;;;;;;;;;;;;;5029674;28;19944;-71
2022/11/08 02:07:17;;;;;;;;;;;;;;;;;;5030542;28;19925;-71
2022/11/08 02:09:42;;;;;;;;;;;;;;;;;;5027790;28;19944;-70
2022/11/08 02:12:08;;;;;;;;;;;;;;;;;;5029576;28;19935;-71
2022/11/08 02:14:34;;;;;;;;;;;;;;;;;;5031876;28;19921;-71
2022/11/08 02:17:00;;;;;;;;;;;;;;;;;;5022791;28;19932;-71
2022/11/08 02:19:26;;;;;;;;;;;;;;;;;;5027361;28;19929;-71
2022/11/08 02:21:52;;;;;;;;;;;;;;;;;;5030827;28;19927;-71
2022/11/08 02:24:18;;;;;;;;;;;;;;;;;;5048086;28;19921;-71
2022/11/08 02:26:44;;;;;;;;;;;;;;;;;;5026848;28;20367;-70
2022/11/08 02:29:10;;;;;;;;;;;;;;;;;;5013882;28;19921;-71
2022/11/08 02:31:36;;;;;;;;;;;;;;;;;;5030735;28;19921;-71
2022/11/08 02:34:01;;;;;;;;;;;;;;;;;;5027871;28;20382;-70
2022/11/08 02:36:27;;;;;;;;;;;;;;;;;;5008277;28;19975;-71
2022/11/08 02:38:53;;;;;;;;;;;;;;;;;;5023322;28;20063;-71
2022/11/08 02:41:19;;;;;;;;;;;;;;;;;;5027648;28;19925;-71
2022/11/08 02:43:45;;;;;;;;;;;;;;;;;;5030323;28;19929;-71
2022/11/08 02:46:11;;;;;;;;;;;;;;;;;;5028831;28;19921;-71
2022/11/08 02:48:37;;;;;;;;;;;;;;;;;;5023629;28;20379;-70
2022/11/08 02:51:03;;;;;;;;;;;;;;;;;;5026759;28;20220;-70
2022/11/08 02:53:29;;;;;;;;;;;;;;;;;;5024371;28;19921;-71
2022/11/08 02:55:54;;;;;;;;;;;;;;;;;;5025717;28;19921;-71
2022/11/08 02:58:20;;;;;;;;;;;;;;;;;;5027785;28;19921;-70
2022/11/08 03:00:46;;;;;;;;;;;;;;;;;;5026819;28;21002;-71
2022/11/08 03:03:12;;;;;;;;;;;;;;;;;;5022224;28;19929;-71
2022/11/08 03:05:38;;;;;;;;;;;;;;;;;;5028947;28;19928;-70
2022/11/08 03:08:04;;;;;;;;;;;;;;;;;;5030997;28;19921;-71
2022/11/08 03:10:30;;;;;;;;;;;;;;;;;;5025133;28;19922;-70
2022/11/08 03:12:56;;;;;;;;;;;;;;;;;;5028901;28;19921;-71
2022/11/08 03:15:22;;;;;;;;;;;;;;;;;;5028645;28;19921;-71
2022/11/08 03:17:48;;;;;;;;;;;;;;;;;;5030929;28;19925;-71
2022/11/08 03:20:14;;;;;;;;;;;;;;;;;;5028972;28;19921;-71
2022/11/08 03:22:40;;;;;;;;;;;;;;;;;;5026695;28;19975;-73
2022/11/08 03:25:05;;;;;;;;;;;;;;;;;;5031755;28;20031;-71
2022/11/08 03:27:31;;;;;;;;;;;;;;;;;;5035006;28;19921;-71
2022/11/08 03:29:57;;;;;;;;;;;;;;;;;;5024816;28;19921;-70
2022/11/08 03:32:23;;;;;;;;;;;;;;;;;;5021372;28;20309;-71
2022/11/08 03:34:49;;;;;;;;;;;;;;;;;;5032938;28;19925;-70
2022/11/08 03:37:15;;;;;;;;;;;;;;;;;;5030330;28;19921;-70
2022/11/08 03:39:41;;;;;;;;;;;;;;;;;;5025724;28;19921;-71
2022/11/08 03:42:07;;;;;;;;;;;;;;;;;;5021128;28;19944;-71
2022/11/08 03:44:33;;;;;;;;;;;;;;;;;;5031544;28;20377;-69
2022/11/08 03:46:59;;;;;;;;;;;;;;;;;;5021269;28;19974;-70
2022/11/08 03:49:25;;;;;;;;;;;;;;;;;;5032619;28;19921;-71
2022/11/08 03:51:51;;;;;;;;;;;;;;;;;;5025743;28;19921;-70
2022/11/08 03:54:17;;;;;;;;;;;;;;;;;;5031518;28;19979;-70
2022/11/08 03:56:43;;;;;;;;;;;;;;;;;;5026564;28;19925;-70
2022/11/08 03:59:09;;;;;;;;;;;;;;;;;;5022560;28;20381;-71
2022/11/08 04:01:35;;;;;;;;;;;;;;;;;;5029386;28;19921;-71
2022/11/08 04:04:01;;;;;;;;;;;;;;;;;;5032003;28;19932;-71
2022/11/08 04:06:26;;;;;;;;;;;;;;;;;;5023547;28;20291;-72
2022/11/08 04:08:52;;;;;;;;;;;;;;;;;;5028573;28;19921;-73
2022/11/08 04:16:48;;;;;;;;;;;;;;;;;;5028702;28;20287;-72
2022/11/08 04:21:58;;;;;;;;;;;;;;;;;;5025487;28;19921;-71
2022/11/08 04:24:24;;;;;;;;;;;;;;;;;;5020914;28;20279;-71
2022/11/08 04:26:50;;;;;;;;;;;;;;;;;;5031058;28;19921;-71
2022/11/08 04:29:16;;;;;;;;;;;;;;;;;;5023585;28;19921;-70
2022/11/08 04:31:42;;;;;;;;;;;;;;;;;;5024654;28;20274;-69
2022/11/08 04:34:08;;;;;;;;;;;;;;;;;;5029692;28;19921;-71
2022/11/08 04:36:33;;;;;;;;;;;;;;;;;;5028570;28;19921;-70
2022/11/08 04:38:59;;;;;;;;;;;;;;;;;;5027342;28;19921;-71
2022/11/08 04:41:25;;;;;;;;;;;;;;;;;;5029273;28;19992;-71
2022/11/08 04:43:51;;;;;;;;;;;;;;;;;;5027670;28;19921;-71
2022/11/08 04:46:17;;;;;;;;;;;;;;;;;;5024088;28;19925;-70
2022/11/08 04:48:43;;;;;;;;;;;;;;;;;;5023852;28;19921;-70
2022/11/08 04:51:09;;;;;;;;;;;;;;;;;;5021849;28;19921;-72
2022/11/08 04:53:35;;;;;;;;;;;;;;;;;;5026092;28;19928;-72
2022/11/08 04:56:01;;;;;;;;;;;;;;;;;;5022670;28;19921;-71
2022/11/08 04:58:27;;;;;;;;;;;;;;;;;;5028049;28;19921;-71
2022/11/08 05:00:52;;;;;;;;;;;;;;;;;;5024829;28;19921;-71
2022/11/08 05:03:18;;;;;;;;;;;;;;;;;;5029406;28;19936;-71
2022/11/08 05:05:44;;;;;;;;;;;;;;;;;;5029810;28;20052;-71
2022/11/08 05:08:10;;;;;;;;;;;;;;;;;;5024225;28;19921;-71
2022/11/08 05:10:36;;;;;;;;;;;;;;;;;;5014640;28;19956;-71
2022/11/08 05:13:02;;;;;;;;;;;;;;;;;;5026393;28;19928;-71
2022/11/08 05:15:28;;;;;;;;;;;;;;;;;;5029615;28;19921;-70
2022/11/08 05:17:54;;;;;;;;;;;;;;;;;;5030342;28;19965;-71
2022/11/08 05:23:24;;;;;;;;;;;;;;;;;;4960572;28;20384;-71
2022/11/08 05:25:50;;;;;;;;;;;;;;;;;;5027579;28;19921;-72
2022/11/08 05:28:16;;;;;;;;;;;;;;;;;;5030138;28;19921;-71
2022/11/08 05:30:41;;;;;;;;;;;;;;;;;;5020578;28;19921;-71
2022/11/08 05:33:08;;;;;;;;;;;;;;;;;;5028825;28;19921;-71
2022/11/08 05:35:34;;;;;;;;;;;;;;;;;;5030354;28;19921;-71
2022/11/08 05:38:00;;;;;;;;;;;;;;;;;;5032654;28;19921;-71
2022/11/08 05:43:00;;;;;;;;;;;;;;;;;;5026693;22;20028;-70
2022/11/08 05:45:26;;;;;;;;;;;;;;;;;;5010490;28;20024;-71
2022/11/08 05:47:52;;;;;;;;;;;;;;;;;;5009638;28;19929;-70
2022/11/08 05:50:18;;;;;;;;;;;;;;;;;;5011073;28;19925;-70
2022/11/08 05:52:44;;;;;;;;;;;;;;;;;;5007988;28;20072;-71
2022/11/08 05:55:10;;;;;;;;;;;;;;;;;;5013802;28;19921;-70
2022/11/08 05:57:35;;;;;;;;;;;;;;;;;;4998292;28;19929;-72
2022/11/08 06:00:02;;;;;;;;;;;;;;;;;;5008614;28;19933;-71
2022/11/08 06:02:31;;;;;;;;;;;;;;;;;;5010281;28;19922;-71
2022/11/08 06:04:57;;;;;;;;;;;;;;;;;;5008324;28;19933;-70
2022/11/08 06:07:23;;;;;;;;;;;;;;;;;;5007287;28;19921;-70
2022/11/08 06:09:49;;;;;;;;;;;;;;;;;;5008995;28;19929;-70
2022/11/08 06:12:15;;;;;;;;;;;;;;;;;;5007808;28;19921;-72
2022/11/08 06:14:41;;;;;;;;;;;;;;;;;;5007188;28;20080;-70
2022/11/08 06:17:07;;;;;;;;;;;;;;;;;;4989105;28;20007;-71
2022/11/08 06:19:33;;;;;;;;;;;;;;;;;;5006443;28;19921;-70
2022/11/08 06:21:59;;;;;;;;;;;;;;;;;;5006421;28;19921;-70
2022/11/08 06:24:25;;;;;;;;;;;;;;;;;;5010316;28;20310;-71
2022/11/08 06:26:51;;;;;;;;;;;;;;;;;;5024397;28;20075;-69
2022/11/08 06:29:17;;;;;;;;;;;;;;;;;;5011655;28;19932;-71
2022/11/08 06:31:42;;;;;;;;;;;;;;;;;;5013448;28;19921;-72
2022/11/08 06:34:09;;;;;;;;;;;;;;;;;;5012516;28;19921;-72
2022/11/08 06:36:35;;;;;;;;;;;;;;;;;;5012599;28;19967;-71
2022/11/08 06:39:01;;;;;;;;;;;;;;;;;;4997071;28;19925;-73
2022/11/08 06:41:28;;;;;;;;;;;;;;;;;;5010200;28;19921;-71
2022/11/08 06:43:54;;;;;;;;;;;;;;;;;;5011717;28;19925;-70
2022/11/08 06:46:20;;;;;;;;;;;;;;;;;;5012262;28;19922;-71
2022/11/08 06:48:46;;;;;;;;;;;;;;;;;;5013767;28;19921;-70
2022/11/08 06:51:12;;;;;;;;;;;;;;;;;;5011857;28;22548;-71
2022/11/08 06:53:38;;;;;;;;;;;;;;;;;;5009951;28;19984;-70
2022/11/08 06:56:04;;;;;;;;;;;;;;;;;;5010758;28;19929;-71
2022/11/08 06:58:30;;;;;;;;;;;;;;;;;;5008044;28;19929;-72
2022/11/08 07:00:56;;;;;;;;;;;;;;;;;;5009561;28;20260;-70
2022/11/08 07:03:22;;;;;;;;;;;;;;;;;;5008155;28;20314;-71
2022/11/08 07:05:47;;;;;;;;;;;;;;;;;;5007585;28;19921;-72
2022/11/08 07:08:13;;;;;;;;;;;;;;;;;;5007012;28;19922;-71
2022/11/08 07:10:40;;;;;;;;;;;;;;;;;;5008042;28;19922;-70
2022/11/08 07:13:06;;;;;;;;;;;;;;;;;;5011791;28;19921;-69
2022/11/08 07:15:32;;;;;;;;;;;;;;;;;;5012710;28;19967;-70
2022/11/08 07:17:58;;;;;;;;;;;;;;;;;;5011798;28;19925;-70
2022/11/08 07:20:24;;;;;;;;;;;;;;;;;;5005102;28;19926;-69
2022/11/08 07:22:49;;;;;;;;;;;;;;;;;;5008353;28;19925;-71
2022/11/08 07:25:15;;;;;;;;;;;;;;;;;;5006467;28;19971;-71
2022/11/08 07:27:41;;;;;;;;;;;;;;;;;;5002964;28;20562;-69
2022/11/08 07:30:07;;;;;;;;;;;;;;;;;;5005765;28;19929;-71
2022/11/08 07:32:33;;;;;;;;;;;;;;;;;;5005694;28;19975;-72
2022/11/08 07:34:59;;;;;;;;;;;;;;;;;;5013533;28;20009;-70
2022/11/08 07:37:25;;;;;;;;;;;;;;;;;;5010596;28;19975;-72
2022/11/08 07:39:51;;;;;;;;;;;;;;;;;;5010795;28;19991;-71
2022/11/08 07:42:17;;;;;;;;;;;;;;;;;;5008253;28;19925;-70
2022/11/08 07:44:43;;;;;;;;;;;;;;;;;;5007771;28;19959;-70
2022/11/08 07:47:09;;;;;;;;;;;;;;;;;;5010020;28;19921;-71
2022/11/08 07:49:34;;;;;;;;;;;;;;;;;;5003932;28;20022;-71
2022/11/08 07:52:00;;;;;;;;;;;;;;;;;;5012434;28;19960;-69
2022/11/08 07:54:26;;;;;;;;;;;;;;;;;;5011082;28;19971;-71
2022/11/08 07:56:52;;;;;;;;;;;;;;;;;;5009657;28;20401;-72
2022/11/08 07:59:18;;;;;;;;;;;;;;;;;;5006263;28;20360;-70
2022/11/08 08:01:44;;;;;;;;;;;;;;;;;;4992966;28;19922;-71
2022/11/08 08:04:11;;;;;;;;;;;;;;;;;;5000998;28;19921;-72
2022/11/08 08:06:37;;;;;;;;;;;;;;;;;;5012083;28;19921;-71
2022/11/08 08:09:03;;;;;;;;;;;;;;;;;;5004283;28;19944;-71
2022/11/08 08:11:29;;;;;;;;;;;;;;;;;;5010589;28;19921;-72
2022/11/08 08:13:55;;;;;;;;;;;;;;;;;;5013307;28;20004;-72
2022/11/08 08:16:21;;;;;;;;;;;;;;;;;;5013807;28;20323;-71
2022/11/08 08:18:47;;;;;;;;;;;;;;;;;;5013790;28;19922;-69
2022/11/08 08:21:13;;;;;;;;;;;;;;;;;;5012883;28;19925;-70
2022/11/08 08:23:39;;;;;;;;;;;;;;;;;;5013619;28;19977;-69
2022/11/08 08:26:04;;;;;;;;;;;;;;;;;;5013675;28;19980;-71
2022/11/08 08:28:30;;;;;;;;;;;;;;;;;;5013400;28;19921;-71
2022/11/08 08:30:56;;;;;;;;;;;;;;;;;;5013977;28;19917;-71
2022/11/08 08:33:22;;;;;;;;;;;;;;;;;;5012599;28;19975;-71
2022/11/08 08:35:48;;;;;;;;;;;;;;;;;;5013041;28;19968;-71
2022/11/08 08:38:14;;;;;;;;;;;;;;;;;;5012797;28;19922;-71
2022/11/08 08:40:40;;;;;;;;;;;;;;;;;;5013596;28;19922;-70
2022/11/08 08:43:06;;;;;;;;;;;;;;;;;;5006718;28;20012;-70
2022/11/08 08:45:32;;;;;;;;;;;;;;;;;;5013458;28;19996;-71
2022/11/08 08:47:58;;;;;;;;;;;;;;;;;;5012380;28;20334;-72
2022/11/08 08:50:24;;;;;;;;;;;;;;;;;;5012638;28;19921;-71
2022/11/08 08:52:50;;;;;;;;;;;;;;;;;;5004297;28;20287;-71
2022/11/08 08:55:16;;;;;;;;;;;;;;;;;;5012153;28;20357;-72
2022/11/08 08:57:42;;;;;;;;;;;;;;;;;;5010673;28;19921;-71
2022/11/08 09:00:08;;;;;;;;;;;;;;;;;;5011193;28;20020;-71
2022/11/08 09:02:34;;;;;;;;;;;;;;;;;;5003148;28;19928;-70
2022/11/08 09:05:00;;;;;;;;;;;;;;;;;;5013298;28;19929;-70
2022/11/08 09:07:25;;;;;;;;;;;;;;;;;;5010387;28;20359;-71
2022/11/08 09:09:51;;;;;;;;;;;;;;;;;;5011303;28;20024;-73
2022/11/08 09:12:17;;;;;;;;;;;;;;;;;;5010947;28;19968;-71
2022/11/08 09:14:43;;;;;;;;;;;;;;;;;;5012380;28;19928;-71
2022/11/08 09:17:09;;;;;;;;;;;;;;;;;;5012739;28;20379;-71
2022/11/08 09:19:35;;;;;;;;;;;;;;;;;;5013187;28;19921;-71
2022/11/08 09:22:01;;;;;;;;;;;;;;;;;;4999787;28;19929;-70
2022/11/08 09:24:27;;;;;;;;;;;;;;;;;;5012918;28;19921;-70
2022/11/08 09:26:53;;;;;;;;;;;;;;;;;;5012960;28;20004;-71
2022/11/08 09:29:19;;;;;;;;;;;;;;;;;;5009044;28;19925;-70
2022/11/08 09:31:45;;;;;;;;;;;;;;;;;;5004517;28;19928;-70
2022/11/08 09:34:11;;;;;;;;;;;;;;;;;;5011367;28;19922;-70
2022/11/08 09:36:36;;;;;;;;;;;;;;;;;;5012829;28;20034;-73
2022/11/08 09:39:02;;;;;;;;;;;;;;;;;;5011451;28;19984;-71
2022/11/08 09:41:28;;;;;;;;;;;;;;;;;;5010986;28;19928;-70
2022/11/08 09:43:54;;;;;;;;;;;;;;;;;;5013148;28;19989;-71
2022/11/08 09:46:20;;;;;;;;;;;;;;;;;;5011971;28;19928;-71
2022/11/08 09:48:46;;;;;;;;;;;;;;;;;;5011944;28;19928;-71
2022/11/08 09:51:12;;;;;;;;;;;;;;;;;;5012882;28;20331;-71
2022/11/08 09:53:38;;;;;;;;;;;;;;;;;;5011716;28;19921;-70
2022/11/08 09:56:04;;;;;;;;;;;;;;;;;;5012626;28;19928;-71
2022/11/08 09:58:30;;;;;;;;;;;;;;;;;;5011815;28;19921;-72
2022/11/08 10:00:56;;;;;;;;;;;;;;;;;;5012892;28;20302;-71
2022/11/08 10:03:23;;;;;;;;;;;;;;;;;;5003077;28;20390;-70
2022/11/08 10:05:49;;;;;;;;;;;;;;;;;;5006180;28;19928;-70
2022/11/08 10:08:15;;;;;;;;;;;;;;;;;;5011896;28;20008;-71
2022/11/08 10:10:41;;;;;;;;;;;;;;;;;;5011455;28;20003;-72
2022/11/08 10:13:06;;;;;;;;;;;;;;;;;;5002186;28;20324;-71
2022/11/08 10:15:33;;;;;;;;;;;;;;;;;;4993316;28;19929;-70
2022/11/08 10:17:59;;;;;;;;;;;;;;;;;;4993134;28;20434;-71
2022/11/08 10:20:25;;;;;;;;;;;;;;;;;;5003100;28;19922;-71
2022/11/08 10:22:51;;;;;;;;;;;;;;;;;;4992181;28;19921;-70
2022/11/08 10:25:17;;;;;;;;;;;;;;;;;;4996285;28;20287;-71
2022/11/08 10:27:43;;;;;;;;;;;;;;;;;;5007968;28;19921;-70
2022/11/08 10:30:08;;;;;;;;;;;;;;;;;;5014782;28;19921;-71
2022/11/08 10:32:34;;;;;;;;;;;;;;;;;;5014021;28;19921;-72
2022/11/08 10:35:01;;;;;;;;;;;;;;;;;;5014801;28;19925;-71
2022/11/08 10:37:27;;;;;;;;;;;;;;;;;;5014064;28;19929;-71
2022/11/08 10:39:53;;;;;;;;;;;;;;;;;;5014094;28;19928;-72
2022/11/08 10:42:19;;;;;;;;;;;;;;;;;;5013467;28;19921;-70
2022/11/08 10:44:45;;;;;;;;;;;;;;;;;;5014502;28;19921;-71
2022/11/08 10:47:11;;;;;;;;;;;;;;;;;;5014475;28;19921;-71
2022/11/08 10:49:37;;;;;;;;;;;;;;;;;;5014991;28;19944;-70
2022/11/08 10:52:03;;;;;;;;;;;;;;;;;;5014177;28;19931;-71
2022/11/08 10:54:29;;;;;;;;;;;;;;;;;;5015769;28;19925;-72
2022/11/08 10:56:55;;;;;;;;;;;;;;;;;;5015447;28;19929;-72
2022/11/08 10:59:21;;;;;;;;;;;;;;;;;;5009669;28;19921;-71
2022/11/08 11:01:47;;;;;;;;;;;;;;;;;;5010631;28;19918;-70
2022/11/08 11:04:13;;;;;;;;;;;;;;;;;;5012561;28;19921;-70
2022/11/08 11:06:39;;;;;;;;;;;;;;;;;;5013348;28;19925;-71
2022/11/08 11:09:05;;;;;;;;;;;;;;;;;;5013344;28;19975;-71
2022/11/08 11:11:30;;;;;;;;;;;;;;;;;;5013197;28;19921;-73
2022/11/08 11:13:56;;;;;;;;;;;;;;;;;;5010958;28;21327;-71
2022/11/08 11:16:22;;;;;;;;;;;;;;;;;;5012685;28;19921;-71
2022/11/08 11:18:49;;;;;;;;;;;;;;;;;;5014027;28;19922;-70
2022/11/08 11:21:18;;;;;;;;;;;;;;;;;;5014055;28;19922;-71
2022/11/08 11:23:44;;;;;;;;;;;;;;;;;;5012271;28;19928;-70
2022/11/08 11:26:10;;;;;;;;;;;;;;;;;;5014270;28;20052;-71
2022/11/08 11:28:36;;;;;;;;;;;;;;;;;;5014103;28;19968;-71
2022/11/08 11:31:02;;;;;;;;;;;;;;;;;;5012487;28;19928;-71
2022/11/08 11:33:28;;;;;;;;;;;;;;;;;;5013334;28;19921;-70
2022/11/08 11:35:54;;;;;;;;;;;;;;;;;;5013216;28;20292;-70
2022/11/08 11:38:20;;;;;;;;;;;;;;;;;;5022274;28;19921;-73
2022/11/08 11:40:46;;;;;;;;;;;;;;;;;;5012608;28;20040;-71
2022/11/08 11:43:12;;;;;;;;;;;;;;;;;;5013763;28;19928;-71
2022/11/08 11:45:38;;;;;;;;;;;;;;;;;;5008774;28;19929;-70
2022/11/08 11:48:04;;;;;;;;;;;;;;;;;;5013491;28;19921;-72
2022/11/08 11:50:30;;;;;;;;;;;;;;;;;;5012267;28;19976;-72
2022/11/08 11:52:56;;;;;;;;;;;;;;;;;;5011353;28;20337;-70
2022/11/08 11:55:22;;;;;;;;;;;;;;;;;;5011921;28;19921;-72
2022/11/08 11:57:48;;;;;;;;;;;;;;;;;;5013234;28;19976;-71
2022/11/08 12:00:14;;;;;;;;;;;;;;;;;;4995402;28;19921;-72
2022/11/08 12:02:40;;;;;;;;;;;;;;;;;;5013219;28;19975;-71
2022/11/08 12:05:06;;;;;;;;;;;;;;;;;;5014097;28;20027;-72
2022/11/08 12:07:32;;;;;;;;;;;;;;;;;;5013313;28;19921;-72
2022/11/08 12:09:58;;;;;;;;;;;;;;;;;;5011286;28;19975;-71
2022/11/08 12:12:24;;;;;;;;;;;;;;;;;;5013697;28;20383;-72
2022/11/08 12:14:50;;;;;;;;;;;;;;;;;;5013602;28;19929;-73
2022/11/08 12:17:16;;;;;;;;;;;;;;;;;;5010349;28;19926;-71
2022/11/08 12:19:42;;;;;;;;;;;;;;;;;;5012138;28;19951;-71
2022/11/08 12:22:08;;;;;;;;;;;;;;;;;;5010467;28;19929;-72
2022/11/08 12:24:34;;;;;;;;;;;;;;;;;;5013288;28;20460;-70
2022/11/08 12:27:00;;;;;;;;;;;;;;;;;;5013223;28;19928;-71
2022/11/08 12:29:27;;;;;;;;;;;;;;;;;;5011428;28;19968;-72
2022/11/08 12:31:52;;;;;;;;;;;;;;;;;;5013456;28;19936;-71
2022/11/08 12:34:18;;;;;;;;;;;;;;;;;;5008263;28;19922;-70
2022/11/08 12:36:44;;;;;;;;;;;;;;;;;;5009012;28;19996;-72
2022/11/08 12:39:10;;;;;;;;;;;;;;;;;;5006334;28;19929;-71
2022/11/08 12:41:36;;;;;;;;;;;;;;;;;;5008159;28;20000;-72
2022/11/08 12:44:02;;;;;;;;;;;;;;;;;;5012568;28;19918;-71
2022/11/08 12:46:28;;;;;;;;;;;;;;;;;;5012527;28;19921;-72
2022/11/08 12:48:57;;;;;;;;;;;;;;;;;;5006401;28;19921;-72
2022/11/08 12:51:23;;;;;;;;;;;;;;;;;;5010543;28;19921;-72
2022/11/08 12:53:49;;;;;;;;;;;;;;;;;;5010526;28;20024;-72
2022/11/08 12:56:15;;;;;;;;;;;;;;;;;;5012071;28;19983;-73
2022/11/08 12:58:41;;;;;;;;;;;;;;;;;;5012211;28;19975;-72
2022/11/08 13:01:07;;;;;;;;;;;;;;;;;;5009554;28;19929;-71
2022/11/08 13:03:33;;;;;;;;;;;;;;;;;;5012563;28;19927;-72
2022/11/08 13:05:59;;;;;;;;;;;;;;;;;;5009754;28;19953;-72
2022/11/08 13:08:25;;;;;;;;;;;;;;;;;;5011288;28;19921;-71
2022/11/08 13:10:54;;;;;;;;;;;;;;;;;;5012044;28;19929;-70
2022/11/08 13:13:20;;;;;;;;;;;;;;;;;;5009187;28;20426;-71
2022/11/08 13:15:46;;;;;;;;;;;;;;;;;;5011292;28;19984;-72
2022/11/08 13:18:11;;;;;;;;;;;;;;;;;;5011311;28;20011;-72
2022/11/08 13:20:37;;;;;;;;;;;;;;;;;;5013259;28;20005;-72
2022/11/08 13:23:03;;;;;;;;;;;;;;;;;;5010652;28;20371;-71
2022/11/08 13:25:29;;;;;;;;;;;;;;;;;;5012035;28;20012;-71
2022/11/08 13:27:55;;;;;;;;;;;;;;;;;;4995024;28;20283;-72
2022/11/08 13:30:22;;;;;;;;;;;;;;;;;;5012742;28;19972;-72
2022/11/08 13:32:50;;;;;;;;;;;;;;;;;;4992671;28;20287;-71
2022/11/08 13:35:16;;;;;;;;;;;;;;;;;;4993038;28;19932;-71
2022/11/08 13:37:42;;;;;;;;;;;;;;;;;;4993201;28;19984;-71
2022/11/08 13:40:08;;;;;;;;;;;;;;;;;;5009892;28;19921;-72
2022/11/08 13:42:34;;;;;;;;;;;;;;;;;;5011424;28;20470;-71
2022/11/08 13:45:00;;;;;;;;;;;;;;;;;;5012063;28;20009;-71
2022/11/08 13:47:26;;;;;;;;;;;;;;;;;;5009349;28;20008;-72
2022/11/08 13:49:52;;;;;;;;;;;;;;;;;;5012694;28;19921;-71
2022/11/08 13:52:18;;;;;;;;;;;;;;;;;;5010680;28;20000;-71
2022/11/08 13:54:44;;;;;;;;;;;;;;;;;;5007859;28;20454;-71
2022/11/08 13:57:10;;;;;;;;;;;;;;;;;;5013052;28;20011;-71
2022/11/08 13:59:36;;;;;;;;;;;;;;;;;;5014816;28;19967;-72
2022/11/08 14:02:02;;;;;;;;;;;;;;;;;;5014634;28;19956;-72
2022/11/08 14:04:28;;;;;;;;;;;;;;;;;;5031370;28;20383;-71
2022/11/08 14:06:54;;;;;;;;;;;;;;;;;;5015604;28;20005;-70
2022/11/08 14:09:20;;;;;;;;;;;;;;;;;;5015213;28;19975;-71
2022/11/08 14:11:47;;;;;;;;;;;;;;;;;;5014775;28;19981;-73
2022/11/08 14:14:13;;;;;;;;;;;;;;;;;;5015353;28;20303;-72
2022/11/08 14:16:39;;;;;;;;;;;;;;;;;;5013762;28;19929;-71
2022/11/08 14:19:05;;;;;;;;;;;;;;;;;;5015924;28;19921;-71
2022/11/08 14:21:31;;;;;;;;;;;;;;;;;;5031628;28;19928;-72
2022/11/08 14:23:56;;;;;;;;;;;;;;;;;;5016103;28;20012;-72
2022/11/08 14:26:22;;;;;;;;;;;;;;;;;;5014945;28;19921;-70
2022/11/08 14:28:48;;;;;;;;;;;;;;;;;;5015752;28;19922;-72
2022/11/08 14:31:14;;;;;;;;;;;;;;;;;;5014469;28;19944;-71
2022/11/08 14:33:40;;;;;;;;;;;;;;;;;;5015523;28;20267;-71
2022/11/08 14:36:06;;;;;;;;;;;;;;;;;;5014801;28;19921;-70
2022/11/08 14:38:32;;;;;;;;;;;;;;;;;;5014083;28;19927;-72
2022/11/08 14:40:58;;;;;;;;;;;;;;;;;;5014263;28;19935;-71
2022/11/08 14:43:24;;;;;;;;;;;;;;;;;;5014098;28;19956;-70
2022/11/08 14:45:50;;;;;;;;;;;;;;;;;;5015039;28;20007;-72
2022/11/08 14:48:16;;;;;;;;;;;;;;;;;;5014718;28;20410;-70
2022/11/08 14:50:42;;;;;;;;;;;;;;;;;;5015815;28;20013;-69
2022/11/08 14:53:08;;;;;;;;;;;;;;;;;;5014106;28;20023;-71
2022/11/08 14:55:34;;;;;;;;;;;;;;;;;;5014317;28;19968;-71
2022/11/08 14:57:59;;;;;;;;;;;;;;;;;;5013925;28;19925;-71
2022/11/08 15:00:25;;;;;;;;;;;;;;;;;;5015192;28;19921;-71
2022/11/08 15:02:51;;;;;;;;;;;;;;;;;;4997219;28;19921;-71
2022/11/08 15:05:17;;;;;;;;;;;;;;;;;;5010060;28;19922;-71
2022/11/08 15:07:43;;;;;;;;;;;;;;;;;;5014362;28;19921;-71
2022/11/08 15:10:09;;;;;;;;;;;;;;;;;;5014183;28;20008;-73
2022/11/08 15:12:35;;;;;;;;;;;;;;;;;;5014736;28;19973;-71
2022/11/08 15:15:01;;;;;;;;;;;;;;;;;;5013551;28;19921;-71
2022/11/08 15:17:27;;;;;;;;;;;;;;;;;;5011893;28;19929;-71
2022/11/08 15:19:53;;;;;;;;;;;;;;;;;;5011453;28;19936;-71
2022/11/08 15:22:19;;;;;;;;;;;;;;;;;;5012992;28;19922;-71
2022/11/08 15:24:45;;;;;;;;;;;;;;;;;;5009442;28;19925;-71
2022/11/08 15:27:10;;;;;;;;;;;;;;;;;;5006726;28;19928;-72
2022/11/08 15:29:36;;;;;;;;;;;;;;;;;;5012595;28;19921;-72
2022/11/08 15:32:02;;;;;;;;;;;;;;;;;;5010803;28;19921;-71
2022/11/08 15:34:28;;;;;;;;;;;;;;;;;;5009756;28;20405;-70
2022/11/08 15:36:54;;;;;;;;;;;;;;;;;;5005015;28;19996;-71
2022/11/08 15:39:20;;;;;;;;;;;;;;;;;;5009758;28;19928;-72
2022/11/08 15:41:46;;;;;;;;;;;;;;;;;;5009023;28;20279;-71
2022/11/08 15:44:13;;;;;;;;;;;;;;;;;;5007010;28;19921;-70
2022/11/08 15:46:39;;;;;;;;;;;;;;;;;;5007985;28;19928;-72
2022/11/08 15:49:05;;;;;;;;;;;;;;;;;;5012146;28;19921;-70
2022/11/08 15:51:31;;;;;;;;;;;;;;;;;;5010922;28;19991;-71
2022/11/08 15:53:56;;;;;;;;;;;;;;;;;;5010873;28;19921;-71
2022/11/08 15:56:22;;;;;;;;;;;;;;;;;;5012609;28;19975;-72
2022/11/08 15:58:48;;;;;;;;;;;;;;;;;;5009899;28;20303;-70
2022/11/08 16:01:14;;;;;;;;;;;;;;;;;;5011160;28;19975;-72
2022/11/08 16:03:40;;;;;;;;;;;;;;;;;;5008631;28;20020;-71
2022/11/08 16:06:09;;;;;;;;;;;;;;;;;;5009956;28;20022;-71
2022/11/08 16:08:35;;;;;;;;;;;;;;;;;;5010225;28;19982;-72
2022/11/08 16:11:01;;;;;;;;;;;;;;;;;;5010810;28;20019;-69
2022/11/08 16:13:27;;;;;;;;;;;;;;;;;;5008566;28;20001;-71
2022/11/08 16:15:53;;;;;;;;;;;;;;;;;;5011548;28;20383;-70
2022/11/08 16:18:19;;;;;;;;;;;;;;;;;;5012022;28;19948;-70
2022/11/08 16:20:45;;;;;;;;;;;;;;;;;;5008771;28;19922;-71
2022/11/08 16:23:11;;;;;;;;;;;;;;;;;;5009232;28;19929;-70
2022/11/08 16:25:37;;;;;;;;;;;;;;;;;;5010289;28;19964;-71
2022/11/08 16:28:03;;;;;;;;;;;;;;;;;;5010567;28;19922;-71
2022/11/08 16:30:29;;;;;;;;;;;;;;;;;;5010442;28;19949;-71
2022/11/08 16:32:55;;;;;;;;;;;;;;;;;;5010962;28;19922;-71
2022/11/08 16:35:21;;;;;;;;;;;;;;;;;;5012235;28;19971;-70
2022/11/08 16:37:47;;;;;;;;;;;;;;;;;;5013140;28;19961;-70
2022/11/08 16:40:13;;;;;;;;;;;;;;;;;;5011353;28;19921;-73
2022/11/08 16:42:39;;;;;;;;;;;;;;;;;;5012251;28;20294;-72
2022/11/08 16:45:05;;;;;;;;;;;;;;;;;;5012153;28;19936;-72
2022/11/08 16:47:31;;;;;;;;;;;;;;;;;;5010823;28;20324;-71
2022/11/08 16:49:57;;;;;;;;;;;;;;;;;;5010013;28;20360;-71
2022/11/08 16:52:23;;;;;;;;;;;;;;;;;;4999647;28;19921;-71
2022/11/08 16:54:49;;;;;;;;;;;;;;;;;;5009003;28;19936;-71
2022/11/08 16:57:15;;;;;;;;;;;;;;;;;;5023224;28;20000;-72
2022/11/08 16:59:41;;;;;;;;;;;;;;;;;;5010382;28;20307;-70